Time;durP1;ratioP1;P1;durP2;ratioP2;P2;SDS_P1;SDS_P2;PMS_P1;PMS_P2;Temp;Humidity;BMP_temperature;BMP_pressure;BME280_temperature;BME280_humidity;BME280_pressure;Samples;Min_cycle;Max_cycle;Signal;HPM_P1;HPM_P2
2022/02/09 00:01:45;;;;;;;13.55;9.45;;;9.10;99.90;;;;;;6213680;23;20016;-81
2022/02/09 00:04:21;;;;;;;16.20;9.48;;;9.10;99.90;;;;;;6239943;23;20399;-82
2022/02/09 00:09:25;;;;;;;18.10;9.05;;;9.20;99.90;;;;;;6238816;23;20031;-80
2022/02/09 00:12:11;;;;;;;16.63;8.90;;;9.20;99.90;;;;;;6238885;23;20569;-82
2022/02/09 00:17:30;;;;;;;15.82;8.75;;;9.20;99.90;;;;;;6238980;23;20156;-82
2022/02/09 01:02:45;;;;;;;18.40;9.45;;;9.20;99.90;;;;;;6214460;23;20056;-81
2022/02/09 01:38:38;;;;;;;15.18;10.35;;;9.20;99.90;;;;;;6241846;22;20082;-83
2022/02/09 01:44:31;;;;;;;18.30;10.60;;;9.20;99.90;;;;;;6217879;22;20102;-82
2022/02/09 01:57:04;;;;;;;14.20;9.32;;;9.20;99.90;;;;;;6242081;22;20024;-82
2022/02/09 01:59:30;;;;;;;13.30;9.20;;;9.20;99.90;;;;;;6216623;22;20452;-83
2022/02/09 02:01:56;;;;;;;15.52;8.88;;;9.20;99.90;;;;;;6192022;22;20031;-83
2022/02/09 02:04:25;;;;;;;16.15;9.02;;;9.20;99.90;;;;;;6217463;22;20111;-83
2022/02/09 02:06:53;;;;;;;14.77;8.88;;;9.20;99.90;;;;;;6169146;22;20023;-83
2022/02/09 02:09:20;;;;;;;13.90;8.15;;;9.40;99.90;;;;;;6217758;22;20016;-82
2022/02/09 02:11:52;;;;;;;11.88;8.52;;;9.30;99.90;;;;;;6192070;22;20051;-83
2022/02/09 02:14:37;;;;;;;13.70;8.95;;;9.30;99.90;;;;;;6218779;22;20413;-82
2022/02/09 02:17:18;;;;;;;13.32;8.48;;;9.30;99.90;;;;;;6242841;22;20026;-82
2022/02/09 02:19:49;;;;;;;13.75;8.55;;;9.30;99.90;;;;;;6217518;22;20015;-83
2022/02/09 02:28:08;;;;;;;13.43;9.00;;;9.20;99.90;;;;;;6221001;22;20352;-83
2022/02/09 03:13:13;;;;;;;12.48;7.78;;;9.10;99.90;;;;;;6241700;22;20027;-83
2022/02/09 03:15:43;;;;;;;13.25;8.73;;;9.00;99.90;;;;;;6223525;22;20027;-83
2022/02/09 03:18:41;;;;;;;16.48;8.27;;;9.00;99.90;;;;;;6243882;22;20022;-82
2022/02/09 03:42:58;;;;;;;10.57;7.28;;;8.90;99.90;;;;;;6243621;22;20020;-82
2022/02/09 03:45:55;;;;;;;14.32;7.50;;;9.00;99.90;;;;;;6199422;22;20020;-83
2022/02/09 03:51:16;;;;;;;17.02;8.25;;;8.90;99.90;;;;;;6198455;22;20032;-82
2022/02/09 03:58:55;;;;;;;16.77;9.55;;;8.90;99.90;;;;;;6201642;22;20059;-83
2022/02/09 04:01:23;;;;;;;17.08;9.20;;;8.90;99.90;;;;;;6167623;22;20553;-83
2022/02/09 04:03:49;;;;;;;14.55;9.70;;;8.90;99.90;;;;;;6193442;22;20475;-83
2022/02/09 04:06:15;;;;;;;14.55;10.95;;;8.90;99.90;;;;;;6217894;22;20020;-82
2022/02/09 04:08:52;;;;;;;15.23;9.98;;;8.90;99.90;;;;;;6217795;22;20047;-82
2022/02/09 04:11:27;;;;;;;16.33;10.65;;;8.90;99.90;;;;;;6195202;22;20023;-82
2022/02/09 04:14:03;;;;;;;15.10;9.90;;;8.90;99.90;;;;;;6172423;22;20106;-83
2022/02/09 04:19:10;;;;;;;13.45;10.10;;;8.90;99.90;;;;;;6218908;22;20056;-83
2022/02/09 04:38:17;;;;;;;17.13;11.52;;;8.90;99.90;;;;;;6221433;22;20015;-84
2022/02/09 04:41:19;;;;;;;14.93;9.98;;;8.90;99.90;;;;;;6221420;22;20047;-83
2022/02/09 04:54:36;;;;;;;17.42;10.90;;;8.90;99.90;;;;;;6243960;22;20097;-87
2022/02/09 04:57:07;;;;;;;18.30;10.57;;;9.00;99.90;;;;;;6218455;22;20015;-88
2022/02/09 05:26:19;;;;;;;15.57;10.10;;;9.00;99.90;;;;;;6218352;22;20023;-82
2022/02/09 05:28:47;;;;;;;13.82;10.95;;;9.00;99.90;;;;;;6175698;22;20290;-83
2022/02/09 05:31:13;;;;;;;14.82;11.23;;;9.10;99.90;;;;;;6245264;22;20023;-82
2022/02/09 05:33:39;;;;;;;19.15;11.35;;;9.10;99.90;;;;;;6168706;22;20041;-83
2022/02/09 05:36:06;;;;;;;15.23;11.68;;;9.00;99.90;;;;;;6245586;22;20023;-81
2022/02/09 05:38:32;;;;;;;15.43;11.27;;;9.00;99.90;;;;;;6194042;22;20020;-83
2022/02/09 05:40:58;;;;;;;16.83;11.10;;;9.00;99.90;;;;;;6219751;22;20012;-83
2022/02/09 05:43:26;;;;;;;12.60;10.20;;;9.00;99.90;;;;;;6170184;22;20054;-78
2022/02/09 05:51:26;;;;;;;13.50;11.05;;;9.00;99.90;;;;;;6243580;22;20027;-82
2022/02/09 05:56:40;;;;;;;16.27;11.85;;;9.00;99.90;;;;;;6241969;22;20124;-83
2022/02/09 06:01:38;;;;;;;13.82;10.55;;;9.00;99.90;;;;;;6216132;22;20038;-83
2022/02/09 06:04:05;;;;;;;16.35;11.20;;;9.00;99.90;;;;;;6190978;22;20046;-82
2022/02/09 06:06:32;;;;;;;18.00;10.85;;;9.00;99.90;;;;;;6190914;22;20011;-83
2022/02/09 06:09:02;;;;;;;17.88;11.25;;;9.00;99.90;;;;;;6217568;22;20035;-83
2022/02/09 06:11:42;;;;;;;16.58;11.68;;;9.00;99.90;;;;;;6242653;22;20016;-84
2022/02/09 06:20:00;;;;;;;16.02;11.13;;;9.00;99.90;;;;;;6203442;22;20352;-83
2022/02/09 06:22:32;;;;;;;14.18;10.82;;;9.10;99.90;;;;;;6171071;22;20051;-83
2022/02/09 06:25:00;;;;;;;17.27;11.27;;;9.10;99.90;;;;;;6219271;22;20019;-83
2022/02/09 06:27:29;;;;;;;12.75;10.82;;;9.10;99.90;;;;;;6220541;22;20023;-83
2022/02/09 06:29:55;;;;;;;14.50;11.23;;;9.00;99.90;;;;;;6195597;22;20019;-83
2022/02/09 06:32:21;;;;;;;17.98;11.48;;;9.00;99.90;;;;;;6194338;22;20137;-83
2022/02/09 06:34:48;;;;;;;14.65;11.63;;;9.00;99.90;;;;;;6193783;22;20145;-82
2022/02/09 06:40:01;;;;;;;12.50;10.38;;;9.00;99.90;;;;;;6223299;22;20463;-82
2022/02/09 06:42:29;;;;;;;17.15;10.40;;;9.10;99.90;;;;;;6243583;22;20024;-83
2022/02/09 06:45:05;;;;;;;18.02;11.27;;;9.10;99.90;;;;;;6192588;22;20059;-82
2022/02/09 06:47:30;;;;;;;13.98;10.25;;;9.00;99.90;;;;;;6218087;22;20015;-83
2022/02/09 06:50:03;;;;;;;17.85;10.40;;;9.00;99.90;;;;;;6216398;22;20026;-83
2022/02/09 06:52:29;;;;;;;13.30;10.20;;;9.00;99.90;;;;;;6195020;22;20090;-83
2022/02/09 06:55:18;;;;;;;12.63;9.15;;;9.00;99.90;;;;;;6190779;22;20456;-82
2022/02/09 06:58:01;;;;;;;13.57;9.48;;;9.00;99.90;;;;;;6239842;22;20085;-82
2022/02/09 07:00:33;;;;;;;13.27;8.90;;;9.00;99.90;;;;;;6215036;22;20476;-82
2022/02/09 07:03:00;;;;;;;11.68;9.18;;;9.00;99.90;;;;;;6240684;22;20018;-83
2022/02/09 07:05:25;;;;;;;12.45;9.30;;;9.00;99.90;;;;;;6215095;22;20015;-84
2022/02/09 07:07:52;;;;;;;12.13;7.95;;;9.00;99.90;;;;;;6218298;22;20065;-83
2022/02/09 07:10:17;;;;;;;12.90;9.63;;;9.00;99.90;;;;;;6218272;22;20526;-83
2022/02/09 07:12:43;;;;;;;12.85;8.98;;;9.00;99.90;;;;;;6168721;22;20019;-83
2022/02/09 07:15:15;;;;;;;14.45;9.18;;;8.90;99.90;;;;;;6218574;22;20027;-83
2022/02/09 07:17:43;;;;;;;14.40;7.85;;;9.00;99.90;;;;;;6194056;22;20122;-82
2022/02/09 07:20:16;;;;;;;12.30;8.05;;;9.00;99.90;;;;;;6218671;22;20476;-83
2022/02/09 07:22:43;;;;;;;10.73;7.50;;;9.00;99.90;;;;;;6194670;22;20387;-83
2022/02/09 07:25:17;;;;;;;12.90;7.50;;;9.00;99.90;;;;;;6243247;22;20085;-83
2022/02/09 07:30:13;;;;;;;11.00;6.90;;;9.00;99.90;;;;;;6218206;22;20034;-83
2022/02/09 07:32:40;;;;;;;10.82;6.30;;;9.00;99.90;;;;;;6217447;22;20026;-84
2022/02/09 07:35:06;;;;;;;10.80;6.47;;;9.00;99.90;;;;;;6191973;22;20305;-84
2022/02/09 07:37:32;;;;;;;13.60;6.70;;;9.00;99.90;;;;;;6240721;22;20393;-83
2022/02/09 07:39:59;;;;;;;11.52;6.30;;;9.00;99.90;;;;;;6191322;22;20058;-83
2022/02/09 07:42:28;;;;;;;10.35;6.25;;;9.00;99.90;;;;;;6218384;22;20161;-83
2022/02/09 07:47:46;;;;;;;9.63;5.75;;;9.00;99.90;;;;;;6243258;22;20023;-83
2022/02/09 07:55:41;;;;;;;10.07;5.43;;;9.00;99.90;;;;;;6196191;22;20055;-83
2022/02/09 07:58:08;;;;;;;9.85;4.40;;;9.00;99.90;;;;;;6218690;22;20042;-83
2022/02/09 08:00:34;;;;;;;9.80;4.32;;;9.00;99.90;;;;;;6243533;22;20456;-82
2022/02/09 08:03:00;;;;;;;9.25;4.40;;;9.00;99.90;;;;;;6193355;22;20157;-83
2022/02/09 08:05:26;;;;;;;10.68;5.15;;;9.00;99.90;;;;;;6168279;22;20019;-83
2022/02/09 08:07:53;;;;;;;11.57;5.38;;;9.00;99.90;;;;;;6192540;22;20076;-83
2022/02/09 08:10:45;;;;;;;9.13;5.20;;;9.10;99.90;;;;;;6217302;22;20020;-83
2022/02/09 08:29:49;;;;;;;11.70;7.00;;;9.20;99.90;;;;;;6221082;22;20038;-82
2022/02/09 08:34:52;;;;;;;11.63;7.43;;;9.20;99.90;;;;;;6242742;22;20352;-83
2022/02/09 08:37:22;;;;;;;12.75;7.55;;;9.20;99.90;;;;;;6193370;22;20023;-83
2022/02/09 08:39:49;;;;;;;13.07;7.63;;;9.20;99.90;;;;;;6243355;22;20360;-83
2022/02/09 08:42:16;;;;;;;13.90;7.78;;;9.20;99.90;;;;;;6218677;22;20349;-81
2022/02/09 08:44:48;;;;;;;9.27;7.15;;;9.20;99.90;;;;;;6217507;22;20022;-83
2022/02/09 08:47:14;;;;;;;13.68;8.25;;;9.20;99.90;;;;;;6169996;22;20026;-82
2022/02/09 08:49:40;;;;;;;13.95;8.20;;;9.20;99.90;;;;;;6217868;22;20062;-82
2022/02/09 08:52:06;;;;;;;14.38;9.15;;;9.20;99.90;;;;;;6217019;22;20508;-82
2022/02/09 08:54:33;;;;;;;13.55;9.23;;;9.20;99.90;;;;;;6217164;22;20405;-83
2022/02/09 08:57:07;;;;;;;16.88;9.57;;;9.10;99.90;;;;;;6192001;22;20026;-82
2022/02/09 08:59:33;;;;;;;15.05;9.18;;;9.10;99.90;;;;;;6217410;22;20456;-82
2022/02/09 09:02:05;;;;;;;18.20;9.85;;;9.10;99.90;;;;;;6217031;22;20058;-82
2022/02/09 09:04:39;;;;;;;14.23;9.38;;;9.00;99.90;;;;;;6218887;22;20112;-82
2022/02/09 09:07:21;;;;;;;15.30;8.88;;;8.90;99.90;;;;;;6219222;22;20025;-82
2022/02/09 10:02:10;;;;;;;13.40;9.00;;;8.90;99.90;;;;;;6220987;22;20028;-83
2022/02/09 10:33:06;;;;;;;14.85;10.10;;;9.00;99.90;;;;;;6221058;22;20042;-80
2022/02/09 10:35:37;;;;;;;14.45;10.90;;;9.00;99.90;;;;;;6169193;22;20015;-81
2022/02/09 10:38:35;;;;;;;15.63;11.20;;;9.00;99.90;;;;;;6211373;23;20054;-79
2022/02/09 10:41:15;;;;;;;17.92;11.55;;;9.10;99.90;;;;;;6209952;23;20458;-80
2022/02/09 10:43:43;;;;;;;18.85;13.25;;;9.10;99.90;;;;;;6211084;23;20023;-80
2022/02/09 10:46:09;;;;;;;18.90;12.43;;;9.10;99.90;;;;;;6211351;23;20075;-80
2022/02/09 10:48:40;;;;;;;19.33;11.88;;;9.10;99.90;;;;;;6211898;23;20016;-80
2022/02/09 10:51:29;;;;;;;16.83;11.10;;;9.10;99.90;;;;;;6237681;23;20107;-80
2022/02/09 10:54:13;;;;;;;16.15;11.25;;;9.10;99.90;;;;;;6236674;23;20027;-80
2022/02/09 10:56:44;;;;;;;17.30;10.48;;;9.10;99.90;;;;;;6236214;23;20060;-82
2022/02/09 10:59:13;;;;;;;15.38;9.25;;;9.10;99.90;;;;;;6235982;23;20016;-77
2022/02/09 11:01:40;;;;;;;15.80;9.15;;;9.10;99.90;;;;;;6210924;23;20016;-80
2022/02/09 11:04:08;;;;;;;14.25;8.65;;;9.20;99.90;;;;;;6211614;23;20400;-81
2022/02/09 11:06:40;;;;;;;13.05;7.57;;;9.20;99.90;;;;;;6236036;23;20357;-80
2022/02/09 11:09:11;;;;;;;13.88;7.75;;;9.20;99.90;;;;;;6210409;23;20428;-81
2022/02/09 11:11:39;;;;;;;16.40;7.65;;;9.20;99.90;;;;;;6212299;23;20012;-80
2022/02/09 11:14:14;;;;;;;9.30;5.88;;;9.20;99.90;;;;;;6212784;23;20016;-78
2022/02/09 11:16:46;;;;;;;9.98;5.82;;;9.30;99.90;;;;;;6213336;23;20020;-78
2022/02/09 11:19:15;;;;;;;12.00;6.18;;;9.30;99.90;;;;;;6237857;23;20016;-85
2022/02/09 11:21:44;;;;;;;11.57;5.43;;;9.30;99.90;;;;;;6188378;23;20095;-85
2022/02/09 11:24:21;;;;;;;9.55;5.50;;;9.40;99.90;;;;;;6212225;23;20020;-85
2022/02/09 11:35:00;;;;;;;12.20;6.13;;;9.30;99.90;;;;;;6236992;23;20020;-81
2022/02/09 11:37:42;;;;;;;12.20;5.53;;;9.30;99.90;;;;;;6237265;23;20023;-81
2022/02/09 12:09:10;;;;;;;12.93;7.15;;;9.20;99.90;;;;;;6238542;23;20024;-81
2022/02/09 12:11:26;;;;;;;13.98;7.53;;;9.20;99.90;;;;;;6216807;23;20016;-81
2022/02/09 12:19:02;;;;;;;14.57;7.53;;;9.30;99.90;;;;;;6238307;23;20456;-81
2022/02/09 12:24:23;;;;;;;19.70;8.38;;;9.30;99.90;;;;;;6237904;23;20138;-81
2022/02/09 12:27:05;;;;;;;13.35;8.50;;;9.20;99.90;;;;;;6236774;23;20480;-80
2022/02/09 12:29:36;;;;;;;13.43;7.72;;;9.20;99.90;;;;;;6238355;23;20449;-80
2022/02/09 12:32:24;;;;;;;15.63;6.85;;;9.20;99.90;;;;;;6212735;23;20043;-81
2022/02/09 12:35:10;;;;;;;12.20;6.38;;;9.20;99.90;;;;;;6235252;23;20345;-82
2022/02/09 12:37:41;;;;;;;10.48;6.63;;;9.20;99.90;;;;;;6209881;23;20345;-81
2022/02/09 12:40:11;;;;;;;20.42;7.43;;;9.20;99.90;;;;;;6236801;23;20394;-81
2022/02/09 12:42:40;;;;;;;11.13;6.85;;;9.20;99.90;;;;;;6211613;23;20016;-81
2022/02/09 12:45:10;;;;;;;10.65;6.82;;;9.20;99.90;;;;;;6238438;23;20051;-81
2022/02/09 12:47:43;;;;;;;;;;;9.20;99.90;;;;;;6237856;23;20099;-81
2022/02/09 12:50:17;;;;;;;16.35;7.15;;;9.10;99.90;;;;;;6212329;23;20325;-82
2022/02/09 12:52:45;;;;;;;11.13;6.63;;;9.20;99.90;;;;;;6212402;23;20024;-81
2022/02/09 12:55:18;;;;;;;13.73;6.95;;;9.20;99.90;;;;;;6213311;23;20020;-81
2022/02/09 12:57:57;;;;;;;10.75;6.65;;;9.10;99.90;;;;;;6212374;23;20055;-82
2022/02/09 13:00:28;;;;;;;13.43;8.10;;;9.10;99.90;;;;;;6214078;23;20020;-81
2022/02/09 13:02:56;;;;;;;14.07;7.72;;;9.10;99.90;;;;;;6212658;23;20024;-81
2022/02/09 13:05:23;;;;;;;12.65;8.52;;;9.10;99.90;;;;;;6213079;23;20469;-80
2022/02/09 13:07:54;;;;;;;14.25;8.07;;;9.10;99.90;;;;;;6213671;23;20062;-80
2022/02/09 13:10:39;;;;;;;15.73;8.75;;;9.10;99.90;;;;;;6239181;23;20044;-84
2022/02/09 13:13:22;;;;;;;16.92;10.07;;;9.10;99.90;;;;;;6214707;23;20048;-86
2022/02/09 13:15:54;;;;;;;18.00;10.60;;;9.10;99.90;;;;;;6213083;23;20026;-85
2022/02/09 13:18:36;;;;;;;17.00;10.55;;;9.10;99.90;;;;;;6212923;23;20421;-84
2022/02/09 14:15:25;;;;;;;19.25;14.23;;;8.90;99.90;;;;;;6209040;23;20081;-84
2022/02/09 14:53:46;;;;;;;8.05;5.75;;;9.00;99.90;;;;;;6229262;23;20262;-84
2022/02/09 14:58:23;;;;;;;7.20;4.32;;;9.00;99.90;;;;;;6229419;23;20047;-85
2022/02/09 15:00:57;;;;;;;7.00;4.05;;;9.00;99.90;;;;;;6204726;23;20095;-76
2022/02/09 15:09:00;;;;;;;6.40;3.45;;;9.00;99.90;;;;;;6213199;23;20050;-76
2022/02/09 15:11:32;;;;;;;4.68;2.97;;;9.00;99.90;;;;;;6236435;23;20449;-77
2022/02/09 15:16:30;;;;;;;4.55;2.95;;;9.00;99.90;;;;;;6235704;23;20463;-77
2022/02/09 15:19:22;;;;;;;3.85;2.67;;;9.00;99.90;;;;;;6237371;23;20539;-77
2022/02/09 15:22:08;;;;;;;4.07;2.63;;;9.00;99.90;;;;;;6209999;23;20047;-78
2022/02/09 15:24:41;;;;;;;5.18;3.28;;;9.00;99.90;;;;;;6234204;23;20020;-77
2022/02/09 15:27:13;;;;;;;5.57;2.95;;;9.00;99.90;;;;;;6236848;23;20472;-77
2022/02/09 15:29:39;;;;;;;4.85;2.88;;;9.00;99.90;;;;;;6208863;23;20184;-77
2022/02/09 15:32:13;;;;;;;4.10;2.67;;;9.00;99.90;;;;;;6209068;23;20020;-78
2022/02/09 15:34:47;;;;;;;5.03;2.53;;;9.00;99.90;;;;;;6206861;23;20158;-78
2022/02/09 15:39:50;;;;;;;4.70;2.53;;;8.90;99.90;;;;;;6236701;22;20169;-78
2022/02/09 16:09:31;;;;;;;7.80;5.15;;;8.80;99.90;;;;;;6221685;22;20020;-77
2022/02/09 16:46:24;;;;;;;20.33;13.65;;;8.70;99.90;;;;;;6243095;22;20024;-87
2022/02/09 16:51:31;;;;;;;20.15;13.18;;;8.70;99.90;;;;;;6219721;22;20032;-88
2022/02/09 16:54:10;;;;;;;22.30;15.40;;;8.60;99.90;;;;;;6242844;22;20043;-88
2022/02/09 17:20:49;;;;;;;22.05;11.63;;;8.40;99.90;;;;;;6239248;22;20046;-77
2022/02/09 17:23:15;;;;;;;14.48;10.45;;;8.40;99.90;;;;;;6190212;22;20027;-78
2022/02/09 17:25:41;;;;;;;22.15;11.35;;;8.40;99.90;;;;;;6190096;22;20087;-78
2022/02/09 17:28:09;;;;;;;24.30;12.00;;;8.40;99.90;;;;;;6190959;22;20519;-77
2022/02/09 17:30:58;;;;;;;22.00;13.30;;;8.40;99.90;;;;;;6190979;22;20084;-78
2022/02/09 17:36:09;;;;;;;20.52;11.90;;;8.30;99.90;;;;;;6213606;22;20050;-78
2022/02/09 17:58:02;;;;;;;25.55;15.48;;;8.40;99.90;;;;;;6212937;23;20456;-74
2022/02/09 18:00:21;;;;;;;25.23;16.27;;;8.40;99.90;;;;;;6229994;23;20461;-86
2022/02/09 18:02:53;;;;;;;28.40;16.10;;;8.40;99.90;;;;;;6233825;23;20023;-87
2022/02/09 18:07:51;;;;;;;32.50;18.40;;;8.50;99.90;;;;;;6210552;23;20411;-86
2022/02/09 18:10:25;;;;;;;33.00;17.35;;;8.40;99.90;;;;;;6210323;23;20519;-86
2022/02/09 18:13:26;;;;;;;30.77;17.02;;;8.40;99.90;;;;;;6190039;23;20023;-86
2022/02/09 19:01:47;;;;;;;42.90;25.48;;;8.30;99.90;;;;;;6183687;23;20020;-78
2022/02/09 19:04:27;;;;;;;44.30;27.55;;;8.30;99.90;;;;;;6210156;23;20489;-78
2022/02/09 19:20:26;;;;;;;54.50;30.58;;;8.30;99.90;;;;;;6212225;23;20031;-79
2022/02/09 19:40:36;;;;;;;52.10;26.77;;;8.30;99.90;;;;;;6239103;23;20024;-80
2022/02/09 19:47:14;;;;;;;59.15;29.52;;;8.30;99.90;;;;;;6244050;22;20410;-79
2022/02/09 19:54:48;;;;;;;66.60;31.63;;;8.20;99.90;;;;;;6216270;22;20038;-80
2022/02/09 19:57:15;;;;;;;73.53;33.28;;;8.20;99.90;;;;;;6219134;22;20057;-80
2022/02/09 19:59:42;;;;;;;69.88;32.78;;;8.30;99.90;;;;;;6244324;22;20108;-79
2022/02/09 20:02:11;;;;;;;75.45;32.50;;;8.20;99.90;;;;;;6217935;22;20527;-80
2022/02/09 20:04:38;;;;;;;64.22;32.70;;;8.20;99.90;;;;;;6244752;22;20133;-80
2022/02/09 20:07:06;;;;;;;78.82;34.25;;;8.20;99.90;;;;;;6194207;22;20105;-80
2022/02/09 20:09:32;;;;;;;77.93;35.70;;;8.20;99.90;;;;;;6194602;22;20012;-80
2022/02/09 20:11:58;;;;;;;79.65;35.83;;;8.20;99.90;;;;;;6194260;22;20054;-80
2022/02/09 20:14:26;;;;;;;83.78;34.53;;;8.20;99.90;;;;;;6243154;22;20365;-80
2022/02/09 20:16:52;;;;;;;89.75;37.03;;;8.20;99.90;;;;;;6194688;22;20019;-80
2022/02/09 20:19:19;;;;;;;100.85;38.63;;;8.20;99.90;;;;;;6218877;22;20016;-80
2022/02/09 20:21:45;;;;;;;97.80;37.88;;;8.20;99.90;;;;;;6244548;22;20069;-80
2022/02/09 20:24:14;;;;;;;100.25;38.95;;;8.20;99.90;;;;;;6218692;22;20352;-79
2022/02/09 20:26:41;;;;;;;102.45;40.15;;;8.20;99.90;;;;;;6219655;22;20024;-80
2022/02/09 20:29:41;;;;;;;98.43;39.30;;;8.20;99.90;;;;;;6244778;22;20107;-80
2022/02/09 20:32:18;;;;;;;95.90;38.72;;;8.20;99.90;;;;;;6238404;22;20019;-79
2022/02/09 20:34:56;;;;;;;102.22;41.47;;;8.20;99.90;;;;;;6197644;22;20487;-79
2022/02/09 20:37:25;;;;;;;103.40;41.67;;;8.20;99.90;;;;;;6218450;22;20016;-80
2022/02/09 20:42:26;;;;;;;99.47;42.17;;;8.20;99.90;;;;;;6237722;23;20024;-79
2022/02/09 20:45:01;;;;;;;112.72;42.70;;;8.20;99.90;;;;;;6211579;23;20397;-80
2022/02/09 20:47:29;;;;;;;98.75;42.30;;;8.20;99.90;;;;;;6215435;23;20090;-79
2022/02/09 20:49:55;;;;;;;108.22;43.35;;;8.20;99.90;;;;;;6189444;23;20519;-80
2022/02/09 20:52:21;;;;;;;99.68;43.80;;;8.20;99.90;;;;;;6213095;23;20063;-80
2022/02/09 20:54:47;;;;;;;116.45;44.80;;;8.20;99.90;;;;;;6188292;23;20023;-80
2022/02/09 20:57:16;;;;;;;108.93;43.97;;;8.20;99.90;;;;;;6213208;23;20082;-79
2022/02/09 20:59:47;;;;;;;121.45;45.65;;;8.20;99.90;;;;;;6188542;23;20027;-79
2022/02/09 21:02:35;;;;;;;100.68;41.38;;;8.20;99.90;;;;;;6189680;23;20413;-80
2022/02/09 21:05:23;;;;;;;96.95;41.50;;;8.20;99.90;;;;;;6217686;23;20020;-80
2022/02/09 21:07:57;;;;;;;101.53;42.42;;;8.20;99.90;;;;;;6217002;23;20107;-80
2022/02/09 21:54:04;;;;;;;159.27;52.80;;;8.20;99.90;;;;;;6242368;22;20483;-80
2022/02/09 21:56:52;;;;;;;172.18;51.47;;;8.20;99.90;;;;;;6196601;22;20023;-80
2022/02/09 21:59:45;;;;;;;156.60;49.90;;;8.10;99.90;;;;;;6202494;22;20198;-80
2022/02/09 22:29:04;;;;;;;171.45;53.42;;;8.20;99.90;;;;;;6242941;22;20020;-79
2022/02/09 22:31:41;;;;;;;194.65;57.42;;;8.20;99.90;;;;;;6197656;22;20019;-80
2022/02/09 22:55:42;;;;;;;199.60;57.13;;;8.20;99.90;;;;;;6198905;22;20020;-79
2022/02/09 22:58:13;;;;;;;137.65;51.00;;;8.20;99.90;;;;;;6192860;22;20578;-78
2022/02/09 23:03:23;;;;;;;245.80;60.10;;;8.20;99.90;;;;;;6240993;22;20358;-78
2022/02/09 23:08:40;;;;;;;193.18;56.28;;;8.20;99.90;;;;;;6219042;22;20020;-78
2022/02/09 23:13:54;;;;;;;239.77;57.83;;;8.20;99.90;;;;;;6219999;22;20027;-77
2022/02/09 23:54:28;;;;;;;248.18;53.78;;;8.30;99.90;;;;;;6200398;22;20506;-76
